createdAt,value
2017-12-04T00:01:11.273Z,0.24
2017-12-04T00:06:12.049Z,0.15
2017-12-04T00:11:12.885Z,0.06
2017-12-04T00:16:13.678Z,0.09
2017-12-04T00:21:14.442Z,0.10
2017-12-04T00:26:15.246Z,0.06
2017-12-04T00:31:16.031Z,0.11
2017-12-04T00:36:16.858Z,0.10
2017-12-04T00:41:17.666Z,0.08
2017-12-04T00:46:18.477Z,0.21
2017-12-04T00:51:20.234Z,0.17
2017-12-04T00:56:21.014Z,0.27
2017-12-04T01:01:21.805Z,0.13
2017-12-04T01:06:22.599Z,0.04
2017-12-04T01:11:23.350Z,0.12
2017-12-04T01:16:24.113Z,0.03
2017-12-04T01:21:25.268Z,0.11
2017-12-04T01:26:26.074Z,0.21
2017-12-04T01:31:26.844Z,0.18
2017-12-04T01:36:27.610Z,0.12
2017-12-04T01:41:28.389Z,0.13
2017-12-04T01:46:29.181Z,0.11
2017-12-04T01:51:29.974Z,0.13
2017-12-04T01:56:30.731Z,0.19
2017-12-04T02:01:31.538Z,0.23
2017-12-04T02:06:32.321Z,0.17
2017-12-04T02:11:33.108Z,0.18
2017-12-04T02:16:33.896Z,0.18
2017-12-04T02:21:34.686Z,0.17
2017-12-04T02:26:35.474Z,0.20
2017-12-04T02:31:36.273Z,0.26
2017-12-04T02:36:37.038Z,0.26
2017-12-04T02:41:37.858Z,0.27
2017-12-04T02:46:38.652Z,0.21
2017-12-04T02:51:39.458Z,0.29
2017-12-04T02:56:40.279Z,0.26
2017-12-04T03:01:41.069Z,0.31
2017-12-04T03:06:41.864Z,0.24
2017-12-04T03:11:42.654Z,0.22
2017-12-04T03:16:43.438Z,0.28
2017-12-04T03:21:44.254Z,0.20
2017-12-04T03:26:45.050Z,0.26
2017-12-04T03:31:45.842Z,0.31
2017-12-04T03:36:46.647Z,0.35
2017-12-04T03:41:47.441Z,0.29
2017-12-04T03:46:48.229Z,0.37
2017-12-04T03:51:49.016Z,0.27
2017-12-04T03:56:49.806Z,0.42
2017-12-04T04:01:50.594Z,0.38
2017-12-04T04:06:51.393Z,0.41
2017-12-04T04:11:52.174Z,0.37
2017-12-04T04:16:52.953Z,0.37
2017-12-04T04:21:53.740Z,0.42
2017-12-04T04:26:54.510Z,0.47
2017-12-04T04:31:55.298Z,0.49
2017-12-04T04:36:56.094Z,0.47
2017-12-04T04:41:56.884Z,0.48
2017-12-04T04:46:57.686Z,0.44
2017-12-04T04:51:58.482Z,0.54
2017-12-04T04:56:59.299Z,0.50
2017-12-04T05:02:00.081Z,0.54
2017-12-04T05:07:00.889Z,0.50
2017-12-04T05:12:01.709Z,0.59
2017-12-04T05:17:02.502Z,0.53
2017-12-04T05:22:03.297Z,0.49
2017-12-04T05:27:04.069Z,0.53
2017-12-04T05:32:04.876Z,0.55
2017-12-04T05:37:05.703Z,0.43
2017-12-04T05:42:06.477Z,0.47
2017-12-04T05:47:07.296Z,0.54
2017-12-04T05:52:08.099Z,0.53
2017-12-04T05:57:08.903Z,0.56
2017-12-04T06:02:09.688Z,0.59
2017-12-04T06:07:10.462Z,0.55
2017-12-04T06:12:11.257Z,0.62
2017-12-04T06:17:12.029Z,0.70
2017-12-04T06:22:12.824Z,0.73
2017-12-04T06:27:13.597Z,0.78
2017-12-04T06:32:14.374Z,0.82
2017-12-04T06:37:15.153Z,0.83
2017-12-04T06:42:15.953Z,0.85
2017-12-04T06:47:16.958Z,0.90
2017-12-04T06:52:17.753Z,0.90
2017-12-04T06:57:18.542Z,0.92
2017-12-04T07:02:19.301Z,0.86
2017-12-04T07:07:20.078Z,0.92
2017-12-04T07:12:20.860Z,0.91
2017-12-04T07:17:21.640Z,0.92
2017-12-04T07:22:22.427Z,1.00
2017-12-04T07:27:23.214Z,1.01
2017-12-04T07:32:23.997Z,1.02
2017-12-04T07:37:24.797Z,1.04
2017-12-04T07:42:25.579Z,1.17
2017-12-04T07:47:26.369Z,1.21
2017-12-04T07:52:27.132Z,1.25
2017-12-04T07:57:28.013Z,1.41
2017-12-04T08:02:28.810Z,1.42
2017-12-04T08:07:33.181Z,1.41
2017-12-04T08:12:34.014Z,1.45
2017-12-04T08:17:34.798Z,1.48
2017-12-04T08:38:27.432Z,1.55
2017-12-04T08:43:28.209Z,1.72
2017-12-04T08:48:28.989Z,1.81
2017-12-04T08:53:36.709Z,2.01
2017-12-04T08:58:37.552Z,2.10
2017-12-04T09:03:38.309Z,2.06
2017-12-04T09:08:39.206Z,2.18
2017-12-04T09:13:39.979Z,2.18
2017-12-04T09:18:40.786Z,2.26
2017-12-04T09:23:41.603Z,2.36
2017-12-04T09:28:42.436Z,2.32
2017-12-04T09:33:43.237Z,2.40
2017-12-04T09:38:44.016Z,2.32
2017-12-04T09:43:44.813Z,2.19
2017-12-04T09:48:45.588Z,2.28
2017-12-04T09:53:46.377Z,2.02
2017-12-04T09:58:47.137Z,1.97
2017-12-04T10:03:47.937Z,2.13
2017-12-04T10:08:48.706Z,1.99
2017-12-04T10:13:49.498Z,2.10
2017-12-04T10:18:50.290Z,2.09
2017-12-04T10:23:51.074Z,2.24
2017-12-04T10:28:51.858Z,2.35
2017-12-04T10:33:52.650Z,2.28
2017-12-04T10:38:53.412Z,2.21
2017-12-04T10:43:54.186Z,2.10
2017-12-04T10:48:54.975Z,2.11
2017-12-04T10:53:55.761Z,2.10
2017-12-04T10:58:56.561Z,2.12
2017-12-04T11:03:57.360Z,2.12
2017-12-04T11:08:58.164Z,2.17
2017-12-04T11:13:58.942Z,2.29
2017-12-04T11:19:13.294Z,2.29
2017-12-04T11:24:14.643Z,2.22
2017-12-04T11:29:15.520Z,2.33
2017-12-04T11:34:16.342Z,2.28
2017-12-04T11:39:21.973Z,2.33
2017-12-04T11:44:26.144Z,2.21
2017-12-04T11:49:27.133Z,2.20
2017-12-04T11:54:31.307Z,2.29
2017-12-04T11:59:35.673Z,2.28
2017-12-04T12:04:36.474Z,2.28
2017-12-04T12:09:43.033Z,2.29
2017-12-04T12:14:43.821Z,2.41
2017-12-04T12:19:54.814Z,2.46
2017-12-04T12:24:58.852Z,2.44
2017-12-04T12:30:20.604Z,2.40
2017-12-04T12:35:27.701Z,2.38
2017-12-04T12:40:28.502Z,2.35
2017-12-04T12:45:35.717Z,2.34
2017-12-04T12:50:42.465Z,2.24
2017-12-04T12:55:43.261Z,2.23
2017-12-04T13:00:44.054Z,2.16
2017-12-04T13:05:44.837Z,2.23
2017-12-04T13:10:54.443Z,2.18
2017-12-04T13:15:55.238Z,2.16
2017-12-04T13:20:56.020Z,2.25
2017-12-04T13:25:56.804Z,2.24
2017-12-04T13:30:57.596Z,2.16
2017-12-04T13:36:10.785Z,2.20
2017-12-04T13:41:21.716Z,2.26
2017-12-04T13:46:22.522Z,2.23
2017-12-04T13:51:23.288Z,2.24
2017-12-04T13:56:24.126Z,2.28
2017-12-04T14:01:25.000Z,2.31
2017-12-04T14:06:25.777Z,2.22
2017-12-04T14:11:26.570Z,2.31
2017-12-04T14:16:27.358Z,2.23
2017-12-04T14:21:28.146Z,2.35
2017-12-04T14:26:28.928Z,2.34
2017-12-04T14:31:29.713Z,2.37
2017-12-04T14:36:30.501Z,2.38
2017-12-04T14:41:31.312Z,2.31
2017-12-04T14:46:32.090Z,2.33
2017-12-04T14:51:32.905Z,2.38
2017-12-04T14:56:33.674Z,2.43
2017-12-04T15:01:34.441Z,2.37
2017-12-04T15:06:35.214Z,2.40
2017-12-04T15:11:36.061Z,2.32
2017-12-04T15:16:36.861Z,2.33
2017-12-04T15:21:37.649Z,2.32
2017-12-04T15:26:45.071Z,2.30
2017-12-04T15:31:45.867Z,2.30
2017-12-04T15:36:49.837Z,2.42
2017-12-04T15:41:50.616Z,2.48
2017-12-04T15:46:51.400Z,2.47
2017-12-04T15:51:54.213Z,2.56
2017-12-04T15:56:54.999Z,2.62
2017-12-04T16:01:55.793Z,2.57
2017-12-04T16:06:56.561Z,2.59
2017-12-04T16:12:04.014Z,2.59
2017-12-04T16:17:04.809Z,2.45
2017-12-04T16:22:05.595Z,2.47
2017-12-04T16:27:06.353Z,2.52
2017-12-04T16:32:07.137Z,2.48
2017-12-04T16:37:07.929Z,2.48
2017-12-04T16:42:08.757Z,2.46
2017-12-04T16:47:20.322Z,2.45
2017-12-04T16:52:21.134Z,2.46
2017-12-04T16:57:21.934Z,2.44
2017-12-04T17:02:22.737Z,2.45
2017-12-04T17:07:23.533Z,2.44
2017-12-04T17:12:27.770Z,2.51
2017-12-04T17:17:34.717Z,2.49
2017-12-04T17:22:35.521Z,2.53
2017-12-04T17:27:36.324Z,2.48
2017-12-04T17:32:37.123Z,2.65
2017-12-04T17:37:37.905Z,2.59
2017-12-04T17:42:38.690Z,2.61
2017-12-04T17:47:39.478Z,2.60
2017-12-04T17:52:40.277Z,2.60
2017-12-04T17:57:44.604Z,2.59
2017-12-04T18:02:45.378Z,2.55
2017-12-04T18:07:46.149Z,2.56
2017-12-04T18:12:46.954Z,2.58
2017-12-04T18:17:48.777Z,2.54
2017-12-04T18:22:49.512Z,2.54
2017-12-04T18:27:53.541Z,2.55
2017-12-04T18:32:54.342Z,2.60
2017-12-04T18:37:56.157Z,2.61
2017-12-04T18:42:56.971Z,2.61
2017-12-04T18:47:57.757Z,2.53
2017-12-04T18:52:58.553Z,2.53
2017-12-04T18:57:59.326Z,2.51
2017-12-04T19:03:00.109Z,2.56
2017-12-04T19:08:00.905Z,2.58
2017-12-04T19:13:01.677Z,2.64
2017-12-04T19:18:02.453Z,2.72
2017-12-04T19:23:03.230Z,2.78
2017-12-04T19:28:04.042Z,2.83
2017-12-04T19:33:06.864Z,2.86
2017-12-04T19:38:07.682Z,2.87
2017-12-04T19:43:15.163Z,2.89
2017-12-04T19:48:15.982Z,2.84
2017-12-04T19:53:18.786Z,2.80
2017-12-04T19:58:19.644Z,2.88
2017-12-04T20:03:20.437Z,2.83
2017-12-04T20:08:21.217Z,2.83
2017-12-04T20:13:22.000Z,2.87
2017-12-04T20:18:22.788Z,2.92
2017-12-04T20:23:27.044Z,2.87
2017-12-04T20:28:27.848Z,2.79
2017-12-04T20:33:28.648Z,2.85
2017-12-04T20:38:29.422Z,2.75
2017-12-04T20:43:33.427Z,2.81
2017-12-04T20:48:34.226Z,2.78
2017-12-04T20:53:35.047Z,2.80
2017-12-04T20:58:37.849Z,2.71
2017-12-04T21:03:38.649Z,2.65
2017-12-04T21:08:51.949Z,2.66
2017-12-04T21:14:05.155Z,2.55
2017-12-04T21:19:05.942Z,2.51
2017-12-04T21:24:06.717Z,2.57
2017-12-04T21:29:07.505Z,2.63
2017-12-04T21:34:08.292Z,2.69
2017-12-04T21:39:10.073Z,2.64
2017-12-04T21:44:10.860Z,2.60
2017-12-04T21:49:11.670Z,2.52
2017-12-04T21:54:12.468Z,2.54
2017-12-04T21:59:13.262Z,2.54
2017-12-04T22:04:14.055Z,2.62
2017-12-04T22:09:14.838Z,2.64
2017-12-04T22:14:30.640Z,2.67
2017-12-04T22:19:31.533Z,2.73
2017-12-04T22:24:32.390Z,2.75
2017-12-04T22:29:33.185Z,2.78
2017-12-04T22:34:33.996Z,2.78
2017-12-04T22:39:34.794Z,2.75
2017-12-04T22:44:35.613Z,2.78
2017-12-04T22:49:36.450Z,2.85
2017-12-04T22:54:37.397Z,2.88
2017-12-04T22:59:38.594Z,2.80
2017-12-04T23:04:39.413Z,2.86
2017-12-04T23:09:40.198Z,2.90
2017-12-04T23:14:40.995Z,2.88
2017-12-04T23:19:41.766Z,2.95
2017-12-04T23:24:42.590Z,2.92
2017-12-04T23:29:43.397Z,2.94
2017-12-04T23:34:44.191Z,2.94
2017-12-04T23:39:44.968Z,2.92
2017-12-04T23:44:45.948Z,2.93
2017-12-04T23:49:46.882Z,2.91
2017-12-04T23:54:47.682Z,2.89
2017-12-04T23:59:48.453Z,2.91
